Mendoza, Texas
Current Conditions -  °F | °C
As of 6:45 AM on Thursday 23 Oct 2014 (Local Time) from KHYI Reporting Station
Haze Haze  
Wind Chill: 64°   Ceiling: Unl
Heat Index: 64°   Visibility: 5mi
Dew Point: 59°   Wind: 5mph
Humidity: 83%   Direction: 330°NNW
Pressure: 30.11"   Gusts: NA
Location:  29.8965°N, 97.6713°W
Report Text: KHYI 231145Z 33004KT 5SM BR 18/15 A3011 RMK FIRST
Loading
Personal Weather Stations






























Interactive Weather Map
Tropical Storm Tracking
New forecast layout! Learn more

10-Day Weather Forecast

Advertisements
Track Severe Weather on mobile